Time;durP1;ratioP1;P1;durP2;ratioP2;P2;SDS_P1;SDS_P2;PMS_P1;PMS_P2;Temp;Humidity;BMP_temperature;BMP_pressure;BME280_temperature;BME280_humidity;BME280_pressure;Samples;Min_cycle;Max_cycle;Signal;HPM_P1;HPM_P2
2021/04/01 00:00:17;;;;;;;44.93;27.13;;;;;;;9.13;67.40;94969.97;1848830;77;21488;-56
2021/04/01 00:02:51;;;;;;;48.98;26.05;;;;;;;9.11;67.27;94971.01;1849085;77;21473;-56
2021/04/01 00:05:21;;;;;;;40.15;24.75;;;;;;;9.02;67.51;94973.58;1849331;77;21528;-56
2021/04/01 00:07:48;;;;;;;34.60;22.55;;;;;;;9.02;67.86;94968.09;1848910;77;21361;-56
2021/04/01 00:10:20;;;;;;;39.80;20.92;;;;;;;8.95;67.98;94968.28;1849169;77;21158;-56
2021/04/01 00:12:48;;;;;;;34.20;19.40;;;;;;;8.83;67.82;94965.48;1848872;77;21107;-57
2021/04/01 00:15:16;;;;;;;28.00;18.23;;;;;;;8.63;68.15;94961.45;1818858;77;21071;-56
2021/04/01 00:17:44;;;;;;;34.15;19.70;;;;;;;8.44;68.37;94960.94;1849311;77;21464;-57
2021/04/01 00:20:15;;;;;;;38.17;22.10;;;;;;;8.34;69.07;94963.34;1849280;77;22264;-56
2021/04/01 00:22:44;;;;;;;35.92;20.70;;;;;;;8.35;69.45;94959.41;1848992;77;21063;-56
2021/04/01 00:25:18;;;;;;;29.77;20.50;;;;;;;8.42;69.34;94961.21;1849509;77;21448;-56
2021/04/01 00:27:47;;;;;;;32.98;20.20;;;;;;;8.48;69.17;94958.12;1849307;77;25342;-56
2021/04/01 00:30:17;;;;;;;33.18;19.75;;;;;;;8.46;69.16;94953.05;1849205;77;21055;-55
2021/04/01 00:32:46;;;;;;;35.08;20.85;;;;;;;8.48;69.45;94956.75;1849139;77;21194;-57
2021/04/01 00:35:15;;;;;;;39.13;20.40;;;;;;;8.50;69.14;94950.23;1821729;77;21077;-58
2021/04/01 00:37:43;;;;;;;31.73;19.62;;;;;;;8.45;69.36;94947.40;1815834;78;21077;-56
2021/04/01 00:40:23;;;;;;;36.28;19.77;;;;;;;8.46;69.38;94942.08;1815831;78;21591;-55
2021/04/01 00:42:50;;;;;;;53.50;27.93;;;;;;;8.42;69.01;94941.41;1669296;86;21083;-55
2021/04/01 00:45:19;;;;;;;39.90;23.85;;;;;;;8.34;69.10;94937.89;1650512;85;21119;-56
2021/04/01 00:47:50;;;;;;;41.98;25.68;;;;;;;8.32;69.30;94932.85;1650361;85;21105;-55
2021/04/01 00:50:25;;;;;;;45.67;22.62;;;;;;;8.36;69.19;94934.91;1671638;85;21097;-56
2021/04/01 00:52:55;;;;;;;37.60;22.22;;;;;;;8.34;68.96;94931.83;1679224;85;21596;-55
2021/04/01 00:55:24;;;;;;;42.13;20.88;;;;;;;8.26;69.10;94933.17;1678825;85;21124;-55
2021/04/01 00:57:54;;;;;;;30.15;20.17;;;;;;;8.23;69.08;94930.53;1678962;84;23479;-56
2021/04/01 01:00:25;;;;;;;36.48;21.93;;;;;;;8.12;69.05;94925.28;1678970;84;21092;-55
2021/04/01 01:02:52;;;;;;;30.00;20.48;;;;;;;8.07;69.22;94924.39;1679281;85;21093;-59
2021/04/01 01:05:22;;;;;;;34.55;19.70;;;;;;;8.03;69.59;94927.81;1679108;84;21084;-54
2021/04/01 01:07:50;;;;;;;31.73;20.20;;;;;;;8.10;69.52;94916.69;1679264;85;21509;-55
2021/04/01 01:10:28;;;;;;;38.13;20.37;;;;;;;8.09;69.48;94919.25;1679214;85;23558;-55
2021/04/01 01:13:02;;;;;;;31.97;19.73;;;;;;;8.07;69.08;94912.06;1679145;85;21216;-56
2021/04/01 01:15:32;;;;;;;29.40;18.27;;;;;;;7.93;69.50;94906.94;1679043;85;21513;-59
2021/04/01 01:18:00;;;;;;;27.05;15.78;;;;;;;7.85;69.85;94907.52;1679130;85;21092;-56
2021/04/01 01:20:30;;;;;;;40.52;18.10;;;;;;;7.85;69.96;94905.53;1679170;84;21096;-56
2021/04/01 01:23:06;;;;;;;29.60;16.25;;;;;;;7.84;69.65;94905.95;1678741;84;21220;-57
2021/04/01 01:25:35;;;;;;;27.73;15.80;;;;;;;7.77;69.76;94902.80;1678965;84;21167;-56
2021/04/01 01:28:05;;;;;;;23.02;14.20;;;;;;;7.73;69.81;94896.59;1679104;85;21180;-56
2021/04/01 01:30:33;;;;;;;20.70;14.03;;;;;;;7.71;69.40;94896.26;1679247;85;21635;-56
2021/04/01 01:33:04;;;;;;;21.97;14.63;;;;;;;7.64;69.45;94896.42;1678960;85;21089;-58
2021/04/01 01:35:37;;;;;;;23.02;14.07;;;;;;;7.60;69.40;94891.63;1677563;85;21369;-57
2021/04/01 01:38:07;;;;;;;18.23;11.30;;;;;;;7.57;69.39;94894.44;1677353;84;21224;-56
2021/04/01 01:40:36;;;;;;;18.42;12.18;;;;;;;7.45;69.26;94890.38;1677629;85;21129;-55
2021/04/01 01:43:07;;;;;;;18.98;12.80;;;;;;;7.28;69.34;94881.95;1656968;84;21145;-55
2021/04/01 01:45:35;;;;;;;22.20;12.68;;;;;;;7.14;69.65;94883.59;1656418;86;21605;-55
2021/04/01 01:48:05;;;;;;;17.60;12.18;;;;;;;7.04;69.84;94877.58;1656358;85;22296;-55
2021/04/01 01:50:36;;;;;;;22.80;13.55;;;;;;;6.96;69.98;94888.47;1661057;86;21230;-55
2021/04/01 01:53:04;;;;;;;20.52;12.63;;;;;;;6.85;70.14;94886.55;1661228;86;21195;-56
2021/04/01 01:55:34;;;;;;;21.00;12.95;;;;;;;6.83;70.45;94879.34;1632891;87;21111;-56
2021/04/01 01:58:03;;;;;;;24.25;14.63;;;;;;;6.88;70.38;94880.23;1632446;86;21115;-56
2021/04/01 02:00:36;;;;;;;24.07;16.65;;;;;;;6.92;70.11;94872.73;1644220;86;21378;-60
2021/04/01 02:03:06;;;;;;;24.07;15.83;;;;;;;6.87;69.91;94873.23;1661257;86;21219;-56
2021/04/01 02:05:35;;;;;;;27.67;16.23;;;;;;;6.86;69.85;94867.59;1661298;86;21198;-58
2021/04/01 02:08:05;;;;;;;30.40;18.27;;;;;;;6.88;69.76;94866.56;1633032;87;21190;-56
2021/04/01 02:10:35;;;;;;;32.73;19.02;;;;;;;6.87;69.43;94864.41;1644024;87;21645;-55
2021/04/01 02:13:05;;;;;;;36.75;22.77;;;;;;;6.84;69.36;94867.20;1644117;86;21193;-56
2021/04/01 02:15:39;;;;;;;20.77;15.18;;;;;;;6.82;69.28;94872.33;1661233;86;21599;-56
2021/04/01 02:18:12;;;;;;;29.27;18.05;;;;;;;6.73;69.13;94863.92;1661106;86;21648;-56
2021/04/01 02:20:45;;;;;;;29.12;17.40;;;;;;;6.59;69.42;94866.91;1633002;87;21097;-55
2021/04/01 02:23:19;;;;;;;22.40;15.30;;;;;;;6.46;69.55;94856.41;1642741;87;21217;-55
2021/04/01 02:25:48;;;;;;;20.97;15.08;;;;;;;6.33;69.74;94860.95;1660884;86;21595;-56
2021/04/01 02:28:18;;;;;;;21.20;14.10;;;;;;;6.26;70.20;94856.96;1670956;85;21152;-56
2021/04/01 02:30:49;;;;;;;22.98;15.68;;;;;;;6.29;70.19;94860.22;1657660;86;21182;-55
2021/04/01 02:33:20;;;;;;;25.37;15.05;;;;;;;6.34;70.13;94850.20;1686801;85;21721;-58
2021/04/01 02:35:48;;;;;;;22.55;14.43;;;;;;;6.36;69.95;94851.31;1661197;86;21083;-55
2021/04/01 02:38:16;;;;;;;19.75;13.88;;;;;;;6.36;69.60;94849.94;1632769;87;21441;-57
2021/04/01 02:40:45;;;;;;;25.55;14.43;;;;;;;6.37;69.26;94848.75;1644014;87;21117;-55
2021/04/01 02:43:18;;;;;;;19.57;15.58;;;;;;;6.34;68.93;94840.64;1671249;84;21190;-56
2021/04/01 02:45:43;;;;;;;21.12;14.33;;;;;;;6.32;69.00;94843.78;1672696;84;22006;-55
2021/04/01 02:48:11;;;;;;;20.55;15.00;;;;;;;6.27;68.41;94846.99;1644287;86;21120;-55
2021/04/01 02:50:41;;;;;;;23.00;17.23;;;;;;;6.12;68.69;94845.69;1644031;86;21135;-56
2021/04/01 02:53:10;;;;;;;23.35;16.52;;;;;;;6.04;69.20;94842.91;1644222;86;21094;-56
2021/04/01 02:55:38;;;;;;;34.27;19.07;;;;;;;6.07;69.61;94838.56;1644265;86;21098;-56
2021/04/01 02:58:06;;;;;;;25.55;16.67;;;;;;;6.05;69.26;94841.72;1644251;86;21215;-56
2021/04/01 03:00:36;;;;;;;22.05;15.15;;;;;;;5.93;69.46;94847.77;1667434;86;21138;-56
2021/04/01 03:03:18;;;;;;;22.52;16.32;;;;;;;5.86;69.38;94849.83;1672639;84;21217;-57
2021/04/01 03:05:41;;;;;;;29.95;18.32;;;;;;;5.71;69.88;94839.70;1671453;85;21496;-57
2021/04/01 03:08:09;;;;;;;28.47;17.17;;;;;;;5.65;69.93;94840.58;1644149;86;21115;-56
2021/04/01 03:10:37;;;;;;;31.93;17.92;;;;;;;5.54;70.19;94838.59;1667421;86;21169;-56
2021/04/01 03:13:05;;;;;;;27.25;17.02;;;;;;;5.49;70.27;94841.22;1672821;85;21141;-56
2021/04/01 03:15:34;;;;;;;32.17;18.52;;;;;;;5.42;70.58;94837.81;1672914;84;21397;-56
2021/04/01 03:18:04;;;;;;;29.20;18.52;;;;;;;5.41;70.59;94839.76;1644295;87;21170;-56
2021/04/01 03:20:33;;;;;;;32.13;19.73;;;;;;;5.42;70.45;94833.73;1667567;84;21189;-56
2021/04/01 03:23:02;;;;;;;21.00;15.88;;;;;;;5.36;70.38;94833.98;1678110;84;21123;-56
2021/04/01 03:25:30;;;;;;;22.37;14.85;;;;;;;5.36;70.70;94836.14;1698814;84;21532;-56
2021/04/01 03:27:58;;;;;;;21.62;15.15;;;;;;;5.37;70.90;94836.31;1698410;84;22189;-56
2021/04/01 03:30:27;;;;;;;22.10;14.05;;;;;;;5.35;70.82;94841.41;1698681;84;21166;-55
2021/04/01 03:32:55;;;;;;;20.72;14.68;;;;;;;5.33;70.81;94835.60;1698458;84;21590;-56
2021/04/01 03:35:24;;;;;;;19.42;14.25;;;;;;;5.32;70.75;94836.78;1671705;84;21212;-56
2021/04/01 03:37:56;;;;;;;24.02;15.95;;;;;;;5.35;70.66;94835.95;1668022;84;21090;-56
2021/04/01 03:40:24;;;;;;;21.87;14.85;;;;;;;5.41;70.26;94833.55;1668282;84;21617;-56
2021/04/01 03:42:53;;;;;;;18.62;13.65;;;;;;;5.31;69.67;94833.87;1667750;84;21593;-56
2021/04/01 03:45:21;;;;;;;21.05;14.35;;;;;;;5.18;69.71;94841.64;1667982;84;21096;-56
2021/04/01 03:47:51;;;;;;;24.00;16.00;;;;;;;5.13;69.89;94833.92;1672995;84;21515;-57
2021/04/01 03:50:19;;;;;;;25.08;15.15;;;;;;;5.15;70.10;94837.02;1672614;84;21598;-56
2021/04/01 03:52:47;;;;;;;19.60;14.98;;;;;;;5.11;69.82;94840.38;1644289;87;22402;-56
2021/04/01 03:57:59;;;;;;;26.75;19.75;;;;;;;5.08;69.65;94827.58;1644402;87;21669;-55
2021/04/01 04:00:27;;;;;;;41.73;28.17;;;;;;;5.15;69.87;94830.20;1643971;86;22015;-56
2021/04/01 04:03:00;;;;;;;30.70;22.50;;;;;;;5.20;69.48;94822.16;1644294;87;21222;-56
2021/04/01 04:15:36;;;;;;;49.30;33.85;;;;;;;5.22;68.77;94823.88;1644405;87;21150;-56
2021/04/01 04:18:05;;;;;;;48.13;31.07;;;;;;;5.18;68.92;94825.89;1644347;87;21345;-57
2021/04/01 04:20:34;;;;;;;39.65;24.80;;;;;;;5.20;69.11;94822.94;1644330;87;21185;-56
2021/04/01 04:23:02;;;;;;;39.73;25.75;;;;;;;5.21;69.11;94823.70;1644248;86;21111;-56
2021/04/01 04:25:31;;;;;;;39.38;26.30;;;;;;;5.18;69.29;94819.83;1644415;87;22085;-57
2021/04/01 04:28:11;;;;;;;42.95;24.63;;;;;;;5.17;68.99;94818.28;1644514;86;21518;-57
2021/04/01 04:30:34;;;;;;;40.52;23.45;;;;;;;5.13;68.96;94819.54;1643391;87;22291;-57
2021/04/01 04:33:02;;;;;;;32.40;22.75;;;;;;;5.12;69.21;94827.53;1644326;87;21199;-57
2021/04/01 04:35:30;;;;;;;36.63;21.42;;;;;;;5.14;69.46;94817.74;1667474;84;21145;-60
2021/04/01 04:38:00;;;;;;;34.60;22.35;;;;;;;5.18;69.03;94816.34;1667995;86;21109;-56
2021/04/01 04:40:28;;;;;;;36.42;24.05;;;;;;;5.08;69.15;94821.34;1668204;86;21519;-56
2021/04/01 04:42:56;;;;;;;35.10;23.27;;;;;;;4.93;69.61;94813.94;1667905;84;22173;-57
2021/04/01 04:45:26;;;;;;;38.63;23.73;;;;;;;4.90;69.84;94818.06;1667904;84;21160;-57
2021/04/01 04:47:54;;;;;;;36.95;20.72;;;;;;;4.91;69.94;94816.89;1667999;84;21209;-58
2021/04/01 04:50:22;;;;;;;31.77;20.80;;;;;;;4.91;70.13;94815.52;1673068;85;21111;-56
2021/04/01 04:52:50;;;;;;;27.70;20.10;;;;;;;4.90;70.08;94814.77;1673154;85;21106;-59
2021/04/01 04:55:20;;;;;;;31.05;20.05;;;;;;;4.84;70.04;94812.32;1644251;87;21406;-58
2021/04/01 04:57:52;;;;;;;67.72;32.05;;;;;;;4.86;70.31;94810.53;1644107;87;21179;-57
2021/04/01 05:05:40;;;;;;;96.97;43.00;;;;;;;5.01;70.37;94814.02;1644436;86;21075;-56
2021/04/01 05:08:07;;;;;;;80.53;43.55;;;;;;;5.10;70.15;94804.76;1644116;86;22427;-61
2021/04/01 05:10:35;;;;;;;106.27;50.55;;;;;;;5.16;70.11;94805.84;1644221;87;21630;-57
2021/04/01 05:15:41;;;;;;;142.32;65.00;;;;;;;5.14;70.17;94801.99;1643824;86;22264;-58
2021/04/01 05:18:20;;;;;;;161.43;66.22;;;;;;;5.15;70.34;94800.20;1644141;86;21079;-57
2021/04/01 05:23:48;;;;;;;136.15;58.55;;;;;;;5.39;70.52;94799.09;1873386;75;23211;-57
2021/04/01 05:26:32;;;;;;;147.70;63.00;;;;;;;5.41;70.69;94798.84;1841583;77;21510;-56
2021/04/01 05:28:49;;;;;;;140.22;62.75;;;;;;;5.51;70.35;94798.50;1837891;78;21379;-58
2021/04/01 05:31:16;;;;;;;150.70;64.80;;;;;;;5.60;70.38;94794.06;1833708;78;20993;-56
2021/04/01 05:33:47;;;;;;;160.95;69.82;;;;;;;5.74;70.21;94798.52;1766158;80;21134;-57
2021/04/01 05:36:21;;;;;;;185.78;87.40;;;;;;;5.88;70.12;94792.86;1759238;80;21488;-58
2021/04/01 05:38:45;;;;;;;181.78;84.05;;;;;;;6.08;70.08;94795.05;1759174;81;21488;-58
2021/04/01 05:41:14;;;;;;;141.47;66.28;;;;;;;6.30;69.53;94794.25;1758807;80;22773;-60
2021/04/01 05:43:48;;;;;;;125.60;60.17;;;;;;;6.55;69.37;94792.42;1757351;80;21167;-59
2021/04/01 05:49:02;;;;;;;91.22;48.70;;;;;;;7.03;68.82;94786.54;1888078;75;22712;-58
2021/04/01 06:04:40;;;;;;;44.93;28.62;;;;;;;8.12;66.87;94784.16;1727693;77;21135;-60
2021/04/01 06:07:13;;;;;;;50.38;23.15;;;;;;;8.21;66.40;94780.23;1809930;78;22284;-62
2021/04/01 06:09:49;;;;;;;42.27;21.93;;;;;;;8.15;66.27;94777.03;1777997;79;26572;-59
2021/04/01 06:12:10;;;;;;;31.35;18.77;;;;;;;8.01;66.33;94771.33;1775046;79;21224;-61
2021/04/01 06:14:58;;;;;;;28.83;19.55;;;;;;;8.07;66.52;94783.30;1811216;77;21151;-61
2021/04/01 06:17:31;;;;;;;29.72;18.65;;;;;;;8.19;66.37;94777.73;1816662;77;21173;-65
2021/04/01 06:20:03;;;;;;;35.23;19.00;;;;;;;8.30;66.19;94771.39;1800575;78;21376;-68
2021/04/01 06:22:34;;;;;;;29.10;17.85;;;;;;;8.44;65.76;94775.14;1781548;79;21646;-65
2021/04/01 06:25:04;;;;;;;30.12;19.52;;;;;;;8.50;65.68;94767.33;1778482;79;21175;-61
2021/04/01 06:27:42;;;;;;;27.90;19.80;;;;;;;8.56;65.63;94764.80;1757385;80;21213;-62
2021/04/01 06:32:47;;;;;;;28.27;19.17;;;;;;;8.66;65.78;94756.28;1759822;79;22533;-63
2021/04/01 06:35:24;;;;;;;30.97;20.05;;;;;;;8.79;65.30;94751.61;1783293;79;21206;-58
2021/04/01 06:40:58;;;;;;;30.97;21.25;;;;;;;9.08;64.81;94747.60;1782558;80;21189;-63
2021/04/01 06:43:59;;;;;;;37.85;22.90;;;;;;;9.31;64.84;94741.05;1782495;79;21134;-61
2021/04/01 06:46:30;;;;;;;27.90;18.67;;;;;;;9.55;64.68;94735.38;1779749;79;22108;-66
2021/04/01 06:49:23;;;;;;;31.33;21.20;;;;;;;9.73;63.24;94736.95;1781343;79;21116;-63
2021/04/01 06:51:47;;;;;;;30.52;21.50;;;;;;;9.61;63.32;94730.89;1774299;79;21090;-61
2021/04/01 06:57:02;;;;;;;39.15;23.32;;;;;;;9.43;63.57;94730.67;1772193;80;21258;-60
2021/04/01 06:59:44;;;;;;;37.90;22.35;;;;;;;9.40;63.53;94727.44;1816184;77;22206;-63
2021/04/01 07:05:39;;;;;;;40.52;23.55;;;;;;;9.48;63.94;94723.25;1856965;75;24543;-64
2021/04/01 07:07:54;;;;;;;;;;;;;;;9.48;63.90;94723.25;1813754;76;21145;-65
2021/04/01 07:10:32;;;;;;;34.83;21.00;;;;;;;9.58;63.67;94724.91;1819194;77;21195;-66
2021/04/01 07:12:51;;;;;;;32.45;21.25;;;;;;;9.64;63.74;94717.64;1816219;77;21168;-66
2021/04/01 07:15:23;;;;;;;29.98;19.42;;;;;;;9.73;63.54;94712.23;1817073;77;21182;-58
2021/04/01 07:17:57;;;;;;;82.53;21.80;;;;;;;9.82;63.52;94715.84;1823471;77;21198;-63
2021/04/01 07:20:48;;;;;;;25.72;17.90;;;;;;;9.92;63.36;94708.45;1798549;76;21182;-64
2021/04/01 07:23:43;;;;;;;30.20;18.45;;;;;;;10.05;62.99;94703.73;1815530;76;21587;-69
2021/04/01 07:46:21;;;;;;;23.87;15.32;;;;;;;11.00;61.50;94666.81;1810313;79;21370;-58
2021/04/01 07:48:51;;;;;;;21.48;14.47;;;;;;;11.17;61.36;94661.23;1806898;79;21196;-56
2021/04/01 07:51:40;;;;;;;21.30;14.70;;;;;;;11.34;61.19;94654.27;1810289;79;21220;-58
2021/04/01 07:54:01;;;;;;;37.23;16.12;;;;;;;11.56;60.67;94647.34;1807114;79;21085;-60
2021/04/01 07:56:54;;;;;;;23.10;15.08;;;;;;;11.67;60.36;94642.14;1810419;79;21136;-59
2021/04/01 08:02:34;;;;;;;26.00;15.70;;;;;;;12.06;59.78;94633.03;1810206;79;21340;-59
2021/04/01 08:04:58;;;;;;;23.20;15.40;;;;;;;12.28;59.39;94626.74;1809713;79;21914;-58
2021/04/01 08:07:32;;;;;;;23.60;15.50;;;;;;;12.44;59.13;94620.28;1809963;79;21189;-56
2021/04/01 08:10:05;;;;;;;24.20;13.35;;;;;;;12.54;58.55;94620.43;1810160;79;21184;-60
2021/04/01 08:12:42;;;;;;;23.73;13.25;;;;;;;12.59;58.27;94609.55;1810201;79;21640;-59
2021/04/01 08:15:16;;;;;;;27.62;13.72;;;;;;;12.61;57.96;94602.94;1810095;79;21188;-61
2021/04/01 08:17:54;;;;;;;18.05;13.78;;;;;;;12.63;57.96;94605.22;1810705;79;21390;-58
2021/04/01 08:20:29;;;;;;;16.37;12.55;;;;;;;12.74;57.66;94595.86;1809401;79;21172;-58
2021/04/01 08:23:12;;;;;;;21.15;14.35;;;;;;;12.88;57.48;94586.92;1806249;79;21171;-59
2021/04/01 08:25:45;;;;;;;21.25;14.30;;;;;;;12.94;57.35;94587.84;1806628;79;21384;-66
2021/04/01 08:28:30;;;;;;;24.37;14.63;;;;;;;13.04;57.22;94581.06;1805678;79;28645;-59
2021/04/01 08:34:36;;;;;;;22.10;14.35;;;;;;;13.36;56.75;94575.53;1788850;79;21871;-59
2021/04/01 08:37:04;;;;;;;23.47;13.95;;;;;;;13.65;56.50;94568.73;1748129;80;21177;-59
2021/04/01 08:39:38;;;;;;;28.50;15.13;;;;;;;13.83;56.37;94562.34;1775998;80;21326;-57
2021/04/01 08:42:21;;;;;;;25.08;16.15;;;;;;;14.07;56.32;94563.06;1777596;79;21180;-58
2021/04/01 08:45:30;;;;;;;36.55;18.10;;;;;;;14.27;55.54;94557.08;1778454;80;21439;-57
2021/04/01 08:48:06;;;;;;;32.00;17.62;;;;;;;14.42;54.95;94548.78;1778977;79;21175;-58
2021/04/01 08:51:01;;;;;;;45.78;18.82;;;;;;;14.58;55.90;94546.30;1780941;80;21192;-57
2021/04/01 08:53:40;;;;;;;29.02;16.27;;;;;;;14.83;55.27;94542.33;1757205;80;21206;-60
2021/04/01 08:56:28;;;;;;;24.72;15.80;;;;;;;15.14;55.22;94545.34;1780503;79;21465;-57
2021/04/01 08:59:14;;;;;;;24.77;16.52;;;;;;;15.39;55.00;94537.80;1780587;80;21164;-61
2021/04/01 09:01:42;;;;;;;26.52;16.00;;;;;;;15.61;54.30;94532.58;1757369;80;21184;-59
2021/04/01 09:04:11;;;;;;;26.52;13.40;;;;;;;15.84;53.09;94524.67;1780734;80;21395;-58
2021/04/01 09:06:41;;;;;;;23.98;12.73;;;;;;;16.07;52.68;94521.55;1753844;80;22678;-58
2021/04/01 09:09:15;;;;;;;30.30;14.30;;;;;;;16.27;50.52;94526.42;1780672;80;21195;-57
2021/04/01 09:14:37;;;;;;;11.75;7.85;;;;;;;16.63;46.55;94520.25;1779856;80;21340;-59
2021/04/01 09:17:13;;;;;;;18.65;7.87;;;;;;;16.83;45.49;94514.00;1755946;80;21160;-60
2021/04/01 09:19:45;;;;;;;38.15;7.65;;;;;;;17.02;44.61;94504.66;1780370;80;21433;-64
2021/04/01 09:22:26;;;;;;;12.88;6.67;;;;;;;17.18;44.68;94506.80;1780414;79;21204;-59
2021/04/01 09:25:01;;;;;;;12.18;7.03;;;;;;;17.29;44.52;94491.59;1780565;80;21437;-59
2021/04/01 09:27:31;;;;;;;9.78;5.78;;;;;;;17.40;43.43;94492.44;1780318;80;21926;-58
2021/04/01 09:30:08;;;;;;;35.28;8.45;;;;;;;17.50;43.01;94487.44;1754621;80;21371;-59
2021/04/01 09:32:39;;;;;;;12.35;6.60;;;;;;;17.55;42.77;94475.57;1780780;80;22729;-57
2021/04/01 09:35:09;;;;;;;27.17;6.65;;;;;;;17.62;41.91;94471.69;1780747;79;21886;-59
2021/04/01 09:37:54;;;;;;;16.73;7.50;;;;;;;17.75;42.48;94471.23;1780864;80;21426;-59
2021/04/01 09:40:29;;;;;;;22.00;8.00;;;;;;;17.97;41.53;94462.99;1778045;80;21180;-59
2021/04/01 09:43:13;;;;;;;20.65;7.42;;;;;;;18.16;40.64;94462.66;1777687;80;21192;-59
2021/04/01 09:45:42;;;;;;;28.38;7.40;;;;;;;18.30;40.18;94461.07;1777711;80;22123;-59
2021/04/01 09:48:12;;;;;;;40.23;7.47;;;;;;;18.41;39.55;94451.33;1777746;80;21240;-57
2021/04/01 09:50:44;;;;;;;12.50;6.28;;;;;;;18.46;39.38;94451.98;1777532;80;21439;-58
2021/04/01 09:53:23;;;;;;;12.07;5.72;;;;;;;18.46;39.03;94457.55;1777746;80;21129;-59
2021/04/01 09:55:54;;;;;;;13.85;5.78;;;;;;;18.42;38.54;94449.44;1777730;80;21327;-58
2021/04/01 09:58:30;;;;;;;9.78;6.25;;;;;;;18.33;38.65;94448.30;1777720;80;21328;-58
2021/04/01 10:04:19;;;;;;;26.27;7.87;;;;;;;18.61;38.61;94442.75;1777892;80;21904;-59
2021/04/01 10:06:50;;;;;;;14.07;7.42;;;;;;;18.86;38.50;94436.16;1778197;80;21967;-57
2021/04/01 10:09:24;;;;;;;18.07;8.18;;;;;;;19.15;36.93;94439.16;1777836;80;21156;-58
2021/04/01 10:12:00;;;;;;;13.72;7.20;;;;;;;19.20;36.66;94428.65;1749892;80;21465;-60
2021/04/01 10:14:29;;;;;;;21.82;7.30;;;;;;;19.37;36.22;94424.45;1777496;80;21452;-60
2021/04/01 10:17:11;;;;;;;30.43;7.15;;;;;;;19.73;35.16;94423.30;1773653;80;21411;-59
2021/04/01 10:19:49;;;;;;;17.00;6.67;;;;;;;20.23;33.40;94414.81;1777704;80;21384;-60
2021/04/01 10:22:26;;;;;;;19.32;5.70;;;;;;;20.85;32.34;94413.86;1883828;74;23147;-64
2021/04/01 10:25:17;;;;;;;11.60;5.33;;;;;;;21.27;31.51;94410.44;1771017;80;22027;-60
2021/04/01 10:30:32;;;;;;;8.80;4.25;;;;;;;21.96;27.53;94404.42;1844643;77;21788;-60
2021/04/01 10:33:20;;;;;;;11.15;4.83;;;;;;;22.12;27.82;94406.36;1813377;77;21863;-58
2021/04/01 10:35:48;;;;;;;10.93;4.58;;;;;;;22.43;29.41;94404.30;1811936;79;21159;-59
2021/04/01 10:38:20;;;;;;;41.68;7.35;;;;;;;22.83;27.59;94396.81;1811965;79;21438;-58
2021/04/01 10:40:49;;;;;;;18.73;5.12;;;;;;;23.00;27.61;94401.50;1812432;79;22349;-59
2021/04/01 10:43:19;;;;;;;20.55;5.28;;;;;;;23.21;26.06;94390.54;1811876;79;21432;-59
2021/04/01 10:45:47;;;;;;;5.75;3.42;;;;;;;23.49;25.93;94385.18;1812327;79;21393;-58
2021/04/01 10:48:33;;;;;;;21.15;5.20;;;;;;;23.87;25.54;94379.46;1812191;79;21166;-58
2021/04/01 10:51:22;;;;;;;;;;;;;;;;;;;;;
2021/04/01 10:53:49;;;;;;;14.05;6.42;;;;;;;24.95;24.65;94366.91;1824053;76;27826;-59
2021/04/01 10:56:18;;;;;;;10.50;5.37;;;;;;;25.38;25.25;94366.44;1814249;79;21425;-60
2021/04/01 10:58:54;;;;;;;8.30;4.90;;;;;;;25.81;24.61;94364.37;1847693;77;21393;-59
2021/04/01 11:01:36;;;;;;;6.95;4.20;;;;;;;26.11;24.06;94358.98;1814084;79;21440;-58
2021/04/01 11:04:05;;;;;;;16.17;6.33;;;;;;;26.28;23.47;94352.86;1815314;78;21425;-59
2021/04/01 11:06:36;;;;;;;13.30;4.67;;;;;;;25.86;23.61;94348.71;1814648;78;21889;-59
2021/04/01 11:09:07;;;;;;;10.35;4.65;;;;;;;25.45;23.61;94342.45;1817858;78;21190;-59
2021/04/01 11:12:13;;;;;;;22.50;4.78;;;;;;;24.81;24.49;94344.34;1783083;77;22079;-60
2021/04/01 11:14:34;;;;;;;11.93;5.95;;;;;;;24.20;24.88;94340.13;1844233;77;21174;-61
2021/04/01 11:17:07;;;;;;;11.28;5.47;;;;;;;23.84;25.03;94332.78;1813690;79;21402;-58
2021/04/01 11:19:37;;;;;;;22.87;5.67;;;;;;;23.79;26.07;94336.41;1817776;78;21115;-58
2021/04/01 11:25:48;;;;;;;27.22;5.97;;;;;;;23.80;26.05;94328.75;1847608;77;21147;-59
2021/04/01 11:28:17;;;;;;;21.80;5.20;;;;;;;23.57;26.55;94324.23;1814096;79;21153;-59
2021/04/01 11:30:50;;;;;;;23.87;4.80;;;;;;;23.44;27.35;94327.08;1817889;78;21437;-58
2021/04/01 11:33:23;;;;;;;9.10;5.53;;;;;;;23.43;27.25;94321.98;1819811;77;21247;-59
2021/04/01 11:36:07;;;;;;;22.42;4.70;;;;;;;23.74;27.20;94313.41;1787445;78;21407;-63
2021/04/01 11:38:45;;;;;;;65.17;7.20;;;;;;;24.05;27.28;94313.92;1847013;77;21361;-62
2021/04/01 11:41:20;;;;;;;14.95;4.90;;;;;;;24.41;27.05;94300.81;1817899;78;21107;-59
2021/04/01 11:43:55;;;;;;;22.90;5.45;;;;;;;24.90;26.21;94297.44;1847261;77;21428;-59
2021/04/01 11:46:28;;;;;;;23.85;6.15;;;;;;;25.27;26.15;94286.45;1817677;77;21215;-59
2021/04/01 11:48:58;;;;;;;11.05;6.05;;;;;;;25.57;25.34;94291.51;1847138;75;21163;-59
2021/04/01 11:51:34;;;;;;;17.95;5.22;;;;;;;26.01;24.83;94283.30;1817622;78;21197;-59
2021/04/01 11:54:04;;;;;;;32.38;6.83;;;;;;;26.57;24.71;94283.72;1832912;76;21468;-58
2021/04/01 11:56:42;;;;;;;16.13;5.90;;;;;;;26.96;23.97;94281.75;1781236;79;21182;-60
2021/04/01 11:59:27;;;;;;;9.43;4.35;;;;;;;27.20;23.87;94279.14;1832609;78;21731;-59
2021/04/01 12:02:00;;;;;;;20.68;4.53;;;;;;;27.54;23.19;94280.86;1802437;77;21436;-59
2021/04/01 12:04:30;;;;;;;10.35;4.70;;;;;;;27.78;22.27;94274.59;1831854;77;21407;-57
2021/04/01 12:06:56;;;;;;;6.62;3.83;;;;;;;27.93;22.64;94271.71;1755404;79;21462;-58
2021/04/01 12:09:27;;;;;;;6.47;4.15;;;;;;;28.16;22.54;94267.46;1831749;76;21891;-61
2021/04/01 12:11:59;;;;;;;14.80;5.65;;;;;;;28.35;21.95;94259.92;1802460;79;21164;-59
2021/04/01 12:14:38;;;;;;;7.80;3.22;;;;;;;28.63;21.78;94264.58;1832116;78;21171;-59
2021/04/01 12:17:07;;;;;;;15.48;4.40;;;;;;;28.82;20.94;94264.81;1779995;79;21343;-62
2021/04/01 12:19:36;;;;;;;12.13;4.25;;;;;;;28.87;20.95;94252.48;1831904;78;21211;-60
2021/04/01 12:22:08;;;;;;;19.15;4.80;;;;;;;28.96;20.98;94257.52;1803238;79;21435;-62
2021/04/01 12:24:37;;;;;;;9.58;4.20;;;;;;;28.90;21.56;94254.19;1809642;77;21743;-60
2021/04/01 12:27:06;;;;;;;33.10;5.10;;;;;;;28.96;21.52;94237.70;1803240;79;21942;-62
2021/04/01 12:29:45;;;;;;;16.95;3.92;;;;;;;29.35;20.74;94237.44;1832733;78;21355;-61
2021/04/01 12:32:17;;;;;;;11.60;4.03;;;;;;;29.71;19.67;94236.22;1802304;79;21222;-61
2021/04/01 12:34:47;;;;;;;11.93;4.17;;;;;;;29.83;19.53;94218.09;1808594;78;21437;-63
2021/04/01 12:37:16;;;;;;;27.65;5.28;;;;;;;29.93;20.33;94227.45;1803109;79;21167;-61
2021/04/01 12:39:45;;;;;;;12.13;4.28;;;;;;;29.66;20.26;94216.70;1832209;78;21163;-61
2021/04/01 12:42:14;;;;;;;8.38;3.25;;;;;;;29.62;20.19;94217.79;1803044;79;21378;-63
2021/04/01 12:44:45;;;;;;;9.25;4.90;;;;;;;29.78;19.94;94213.44;1832311;78;21288;-63
2021/04/01 12:47:22;;;;;;;7.42;3.92;;;;;;;30.04;20.08;94210.67;1803346;79;21843;-60
2021/04/01 12:49:50;;;;;;;8.10;3.20;;;;;;;30.41;20.17;94212.23;1831970;78;21124;-67
2021/04/01 12:52:18;;;;;;;12.80;3.22;;;;;;;30.77;19.54;94211.51;1800709;79;21155;-62
2021/04/01 12:54:51;;;;;;;12.20;3.83;;;;;;;30.99;19.37;94215.41;1825834;78;21440;-66
2021/04/01 12:57:21;;;;;;;9.53;3.55;;;;;;;31.07;19.40;94210.33;1825886;78;21133;-65
2021/04/01 12:59:55;;;;;;;18.98;5.25;;;;;;;30.68;19.76;94212.97;1820290;78;21200;-65
2021/04/01 13:02:25;;;;;;;16.37;5.90;;;;;;;29.86;20.23;94207.67;1825375;78;21861;-68
2021/04/01 13:04:56;;;;;;;20.23;5.45;;;;;;;28.91;21.35;94202.55;1825173;78;21388;-70
2021/04/01 13:07:28;;;;;;;7.57;3.87;;;;;;;28.49;21.97;94195.41;1825227;78;22678;-65
2021/04/01 13:10:30;;;;;;;12.05;4.33;;;;;;;28.61;21.79;94198.52;1824471;78;21336;-64
2021/04/01 13:12:31;;;;;;;48.10;6.55;;;;;;;29.02;21.81;94178.73;1820485;78;21161;-67
2021/04/01 13:14:59;;;;;;;9.78;5.05;;;;;;;29.43;21.75;94182.81;1824735;78;21189;-68
2021/04/01 13:17:28;;;;;;;6.78;3.58;;;;;;;29.49;21.64;94179.11;1824810;78;21156;-63
2021/04/01 13:19:58;;;;;;;8.53;4.17;;;;;;;29.64;21.51;94174.68;1824563;78;21455;-64